createdAt,value
2019-03-28T00:01:48.714Z,8.40
2019-03-28T00:25:19.964Z,8.40
2019-03-28T00:27:46.365Z,8.40
2019-03-28T00:30:13.916Z,8.30
2019-03-28T00:32:40.143Z,8.30
2019-03-28T00:35:06.668Z,8.30
2019-03-28T00:37:32.886Z,8.40
2019-03-28T00:39:59.111Z,8.30
2019-03-28T00:42:25.671Z,8.30
2019-03-28T00:44:52.214Z,8.30
2019-03-28T00:47:18.855Z,8.30
2019-03-28T00:49:45.102Z,8.30
2019-03-28T00:52:11.394Z,8.30
2019-03-28T00:54:37.689Z,8.30
2019-03-28T00:57:03.907Z,8.30
2019-03-28T00:59:30.151Z,8.30
2019-03-28T01:01:56.381Z,8.30
2019-03-28T01:04:22.591Z,8.30
2019-03-28T01:06:48.847Z,8.30
2019-03-28T01:09:15.081Z,8.30
2019-03-28T01:11:41.644Z,8.30
2019-03-28T01:14:08.283Z,8.30
2019-03-28T01:16:34.754Z,8.30
2019-03-28T01:19:00.986Z,8.30
2019-03-28T01:21:27.219Z,8.30
2019-03-28T01:23:53.455Z,8.30
2019-03-28T01:26:19.682Z,8.30
2019-03-28T01:28:45.915Z,8.30
2019-03-28T01:31:12.151Z,8.30
2019-03-28T01:33:38.727Z,8.30
2019-03-28T01:36:04.995Z,8.30
2019-03-28T01:38:31.224Z,8.30
2019-03-28T01:40:57.822Z,8.30
2019-03-28T01:43:24.079Z,8.30
2019-03-28T01:45:50.302Z,8.30
2019-03-28T01:48:16.555Z,8.30
2019-03-28T01:50:42.796Z,8.30
2019-03-28T01:53:09.385Z,8.30
2019-03-28T01:55:35.602Z,8.30
2019-03-28T01:58:01.859Z,8.20
2019-03-28T02:00:28.192Z,8.20
2019-03-28T02:02:54.701Z,8.30
2019-03-28T02:05:21.456Z,8.30
2019-03-28T02:07:47.985Z,8.30
2019-03-28T02:10:14.831Z,8.30
2019-03-28T02:12:41.042Z,8.20
2019-03-28T02:15:08.122Z,8.30
2019-03-28T02:17:34.344Z,8.30
2019-03-28T02:20:00.563Z,8.20
2019-03-28T02:22:27.099Z,8.20
2019-03-28T02:24:53.632Z,8.20
2019-03-28T02:27:24.228Z,8.20
2019-03-28T02:29:48.243Z,8.20
2019-03-28T02:32:14.500Z,8.20
2019-03-28T02:34:40.730Z,8.20
2019-03-28T02:37:07.229Z,8.20
2019-03-28T02:39:33.468Z,8.20
2019-03-28T02:42:00.023Z,8.20
2019-03-28T02:44:26.269Z,8.20
2019-03-28T02:46:52.485Z,8.20
2019-03-28T02:49:19.726Z,8.20
2019-03-28T02:51:46.653Z,8.20
2019-03-28T02:54:12.853Z,8.20
2019-03-28T02:56:39.120Z,8.20
2019-03-28T02:59:05.476Z,8.20
2019-03-28T03:01:32.075Z,8.20
2019-03-28T03:03:58.353Z,8.20
2019-03-28T03:06:24.562Z,8.20
2019-03-28T03:08:50.792Z,8.20
2019-03-28T03:11:17.123Z,8.20
2019-03-28T03:13:43.370Z,8.20
2019-03-28T03:16:09.585Z,8.10
2019-03-28T03:18:35.803Z,8.20
2019-03-28T03:21:02.686Z,8.20
2019-03-28T03:23:28.900Z,8.20
2019-03-28T03:25:55.139Z,8.10
2019-03-28T03:28:21.392Z,8.20
2019-03-28T03:30:47.963Z,8.20
2019-03-28T03:33:14.219Z,8.20
2019-03-28T03:35:40.438Z,8.20
2019-03-28T03:38:06.700Z,8.20
2019-03-28T03:40:32.897Z,8.20
2019-03-28T03:42:59.221Z,8.20
2019-03-28T03:45:25.457Z,8.20
2019-03-28T03:47:51.685Z,8.20
2019-03-28T03:50:28.060Z,8.20
2019-03-28T03:52:54.279Z,8.20
2019-03-28T03:55:20.518Z,8.20
2019-03-28T03:57:46.735Z,8.20
2019-03-28T04:00:16.762Z,8.20
2019-03-28T04:02:42.999Z,8.20
2019-03-28T04:05:09.507Z,8.20
2019-03-28T04:07:35.778Z,8.20
2019-03-28T04:10:03.584Z,8.20
2019-03-28T04:12:29.836Z,8.10
2019-03-28T04:14:56.358Z,8.10
2019-03-28T04:17:22.581Z,8.10
2019-03-28T04:19:48.812Z,8.10
2019-03-28T04:22:15.057Z,8.10
2019-03-28T04:24:41.271Z,8.20
2019-03-28T04:27:07.528Z,8.10
2019-03-28T04:29:33.720Z,8.20
2019-03-28T04:32:00.262Z,8.20
2019-03-28T04:34:26.503Z,8.20
2019-03-28T04:36:52.715Z,8.20
2019-03-28T04:39:18.963Z,8.20
2019-03-28T04:41:45.195Z,8.20
2019-03-28T04:44:11.430Z,8.20
2019-03-28T04:46:37.652Z,8.20
2019-03-28T04:49:04.010Z,8.20
2019-03-28T04:51:30.590Z,8.20
2019-03-28T04:53:56.827Z,8.10
2019-03-28T04:56:23.045Z,8.20
2019-03-28T04:58:49.429Z,8.20
2019-03-28T05:01:16.127Z,8.10
2019-03-28T05:03:42.383Z,8.20
2019-03-28T05:06:08.713Z,8.20
2019-03-28T05:08:34.927Z,8.20
2019-03-28T05:11:01.448Z,8.20
2019-03-28T05:13:27.662Z,8.20
2019-03-28T05:15:54.210Z,8.20
2019-03-28T05:18:20.751Z,8.20
2019-03-28T05:20:47.077Z,8.20
2019-03-28T05:23:14.313Z,8.20
2019-03-28T05:25:40.883Z,8.20
2019-03-28T05:28:07.123Z,8.20
2019-03-28T05:30:33.351Z,8.20
2019-03-28T05:32:59.591Z,8.20
2019-03-28T05:35:26.378Z,8.20
2019-03-28T05:37:52.642Z,8.30
2019-03-28T05:40:18.863Z,8.30
2019-03-28T05:42:45.406Z,8.20
2019-03-28T05:45:11.813Z,8.30
2019-03-28T05:47:38.058Z,8.20
2019-03-28T05:50:05.303Z,8.30
2019-03-28T05:52:32.441Z,8.30
2019-03-28T05:54:58.670Z,8.30
2019-03-28T05:57:24.894Z,8.30
2019-03-28T05:59:51.111Z,8.30
2019-03-28T06:02:17.343Z,8.30
2019-03-28T06:04:43.911Z,8.30
2019-03-28T06:07:10.386Z,8.30
2019-03-28T06:09:40.043Z,8.30
2019-03-28T06:12:05.136Z,8.30
2019-03-28T06:14:31.362Z,8.30
2019-03-28T06:16:57.589Z,8.30
2019-03-28T06:19:23.818Z,8.30
2019-03-28T06:21:50.043Z,8.30
2019-03-28T06:24:16.285Z,8.30
2019-03-28T06:26:42.542Z,8.30
2019-03-28T06:29:08.867Z,8.30
2019-03-28T06:31:35.087Z,8.30
2019-03-28T06:34:01.345Z,8.40
2019-03-28T06:36:27.553Z,8.30
2019-03-28T06:38:53.800Z,8.30
2019-03-28T06:41:20.324Z,8.30
2019-03-28T06:43:46.551Z,8.30
2019-03-28T06:46:12.774Z,8.30
2019-03-28T06:48:39.027Z,8.40
2019-03-28T06:51:05.317Z,8.50
2019-03-28T06:53:31.647Z,8.50
2019-03-28T06:55:58.195Z,8.50
2019-03-28T06:58:24.423Z,8.50
2019-03-28T07:00:50.658Z,8.50
2019-03-28T07:03:17.196Z,8.50
2019-03-28T07:05:43.733Z,8.60
2019-03-28T07:08:09.959Z,8.70
2019-03-28T07:10:36.519Z,8.80
2019-03-28T07:13:02.952Z,8.80
2019-03-28T07:15:29.181Z,8.80
2019-03-28T07:17:56.498Z,8.80
2019-03-28T07:20:22.716Z,8.80
2019-03-28T07:22:48.955Z,8.80
2019-03-28T07:25:15.181Z,8.70
2019-03-28T07:27:41.382Z,8.70
2019-03-28T07:30:10.440Z,8.70
2019-03-28T07:32:36.655Z,8.70
2019-03-28T07:35:05.351Z,8.70
2019-03-28T07:37:31.579Z,8.80
2019-03-28T07:39:57.793Z,8.80
2019-03-28T07:42:24.030Z,8.80
2019-03-28T07:44:50.252Z,8.80
2019-03-28T07:47:16.564Z,8.80
2019-03-28T07:49:42.826Z,8.80
2019-03-28T07:52:09.079Z,8.70
2019-03-28T07:54:35.282Z,8.80
2019-03-28T07:57:01.573Z,8.80
2019-03-28T07:59:27.782Z,8.80
2019-03-28T08:01:54.023Z,8.70
2019-03-28T08:04:20.263Z,8.80
2019-03-28T08:06:50.223Z,8.80
2019-03-28T08:09:17.450Z,8.80
2019-03-28T08:11:42.567Z,8.80
2019-03-28T08:14:08.805Z,8.80
2019-03-28T08:16:35.019Z,8.80
2019-03-28T08:19:01.547Z,8.80
2019-03-28T08:21:27.758Z,8.80
2019-03-28T08:23:53.992Z,8.80
2019-03-28T08:26:20.512Z,8.80
2019-03-28T08:28:46.739Z,8.90
2019-03-28T08:31:12.948Z,8.90
2019-03-28T08:33:41.495Z,8.90
2019-03-28T08:36:07.911Z,8.90
2019-03-28T08:38:37.970Z,8.90
2019-03-28T08:41:06.984Z,9.00
2019-03-28T08:43:32.226Z,9.00
2019-03-28T08:45:58.534Z,9.00
2019-03-28T08:48:24.763Z,9.00
2019-03-28T08:50:50.990Z,9.00
2019-03-28T08:53:17.230Z,9.00
2019-03-28T08:55:43.442Z,9.00
2019-03-28T08:58:09.675Z,9.10
2019-03-28T09:00:50.936Z,9.10
2019-03-28T09:03:03.938Z,9.10
2019-03-28T09:05:30.540Z,9.10
2019-03-28T09:07:56.770Z,9.20
2019-03-28T09:10:23.303Z,9.20
2019-03-28T09:12:49.553Z,9.20
2019-03-28T09:15:15.979Z,9.20
2019-03-28T09:17:42.605Z,9.30
2019-03-28T09:20:09.230Z,9.40
2019-03-28T09:22:38.704Z,9.40
2019-03-28T09:25:05.489Z,9.40
2019-03-28T09:27:31.734Z,9.40
2019-03-28T09:29:57.986Z,9.40
2019-03-28T09:32:24.835Z,9.50
2019-03-28T09:34:51.650Z,9.50
2019-03-28T09:37:17.882Z,9.50
2019-03-28T09:39:44.402Z,9.60
2019-03-28T09:42:10.834Z,9.60
2019-03-28T09:44:37.018Z,9.80
2019-03-28T09:47:03.354Z,9.90
2019-03-28T09:49:29.927Z,9.90
2019-03-28T09:51:56.157Z,9.90
2019-03-28T09:54:22.409Z,9.90
2019-03-28T09:57:08.544Z,9.90
2019-03-28T09:59:34.766Z,10.00
2019-03-28T10:02:01.374Z,10.00
2019-03-28T10:04:28.290Z,10.20
2019-03-28T10:06:54.522Z,10.20
2019-03-28T10:09:21.030Z,10.20
2019-03-28T10:11:47.270Z,10.20
2019-03-28T10:14:13.486Z,10.10
2019-03-28T10:16:40.401Z,10.20
2019-03-28T10:19:06.760Z,10.20
2019-03-28T10:21:32.975Z,10.20
2019-03-28T10:23:59.555Z,10.20
2019-03-28T10:26:25.762Z,10.20
2019-03-28T10:28:52.003Z,10.20
2019-03-28T10:31:18.225Z,10.20
2019-03-28T10:33:44.468Z,10.10
2019-03-28T10:36:10.679Z,10.10
2019-03-28T10:38:36.935Z,10.20
2019-03-28T10:41:03.147Z,10.20
2019-03-28T10:43:29.359Z,10.30
2019-03-28T10:45:55.590Z,10.30
2019-03-28T10:48:23.438Z,10.40
2019-03-28T10:50:49.882Z,10.50
2019-03-28T10:53:16.157Z,10.60
2019-03-28T10:55:42.813Z,10.70
2019-03-28T10:58:18.243Z,10.80
2019-03-28T11:00:37.378Z,10.80
2019-03-28T11:03:04.760Z,10.90
2019-03-28T11:05:31.030Z,10.90
2019-03-28T11:07:57.258Z,11.00
2019-03-28T11:10:23.495Z,11.10
2019-03-28T11:12:50.074Z,11.20
2019-03-28T11:15:16.364Z,11.20
2019-03-28T11:17:42.580Z,11.30
2019-03-28T11:20:09.866Z,11.40
2019-03-28T11:22:36.322Z,11.40
2019-03-28T11:25:04.369Z,11.40
2019-03-28T11:27:30.586Z,11.40
2019-03-28T11:29:56.798Z,11.30
2019-03-28T11:32:23.034Z,11.40
2019-03-28T11:34:49.262Z,11.30
2019-03-28T11:37:25.999Z,11.30
2019-03-28T11:39:43.507Z,11.30
2019-03-28T11:42:09.763Z,11.30
2019-03-28T11:44:35.977Z,11.40
2019-03-28T11:47:02.342Z,11.30
2019-03-28T11:49:28.544Z,11.40
2019-03-28T11:51:55.159Z,11.30
2019-03-28T11:54:21.702Z,11.40
2019-03-28T11:56:47.947Z,11.30
2019-03-28T11:59:14.466Z,11.30
2019-03-28T12:01:40.701Z,11.30
2019-03-28T12:04:06.930Z,11.20
2019-03-28T12:06:33.192Z,11.10
2019-03-28T12:08:59.398Z,11.10
2019-03-28T12:11:25.630Z,11.20
2019-03-28T12:13:51.854Z,11.10
2019-03-28T12:16:18.097Z,11.10
2019-03-28T12:18:44.311Z,11.10
2019-03-28T12:21:10.518Z,11.10
2019-03-28T12:23:36.768Z,11.00
2019-03-28T12:26:03.097Z,11.00
2019-03-28T12:28:29.330Z,11.00
2019-03-28T12:30:55.559Z,11.00
2019-03-28T12:33:21.813Z,10.90
2019-03-28T12:35:48.021Z,10.90
2019-03-28T12:38:14.269Z,10.90
2019-03-28T12:40:40.500Z,10.90
2019-03-28T12:43:06.703Z,10.90
2019-03-28T12:45:32.951Z,11.00
2019-03-28T12:47:59.457Z,11.00
2019-03-28T12:50:25.717Z,11.00
2019-03-28T12:52:51.923Z,11.00
2019-03-28T12:55:18.178Z,11.00
2019-03-28T12:57:48.113Z,11.00
2019-03-28T13:00:13.515Z,11.00
2019-03-28T13:02:39.769Z,11.00
2019-03-28T13:05:06.779Z,11.00
2019-03-28T13:07:33.378Z,10.90
2019-03-28T13:09:59.606Z,10.90
2019-03-28T13:12:25.823Z,10.90
2019-03-28T13:14:52.055Z,11.00
2019-03-28T13:17:18.267Z,11.10
2019-03-28T13:19:44.532Z,11.00
2019-03-28T13:22:10.747Z,11.10
2019-03-28T13:24:37.078Z,11.10
2019-03-28T13:27:03.277Z,11.20
2019-03-28T13:29:29.487Z,11.20
2019-03-28T13:31:55.723Z,11.30
2019-03-28T13:34:21.947Z,11.30
2019-03-28T13:36:48.218Z,11.20
2019-03-28T13:39:14.433Z,11.30
2019-03-28T13:41:40.651Z,11.30
2019-03-28T13:44:06.891Z,11.30
2019-03-28T13:46:33.119Z,11.40
2019-03-28T13:48:59.347Z,11.40
2019-03-28T13:51:25.571Z,11.40
2019-03-28T13:53:52.170Z,11.40
2019-03-28T13:56:18.642Z,11.40
2019-03-28T13:58:45.610Z,11.40
2019-03-28T14:01:11.843Z,11.40
2019-03-28T14:03:38.039Z,11.40
2019-03-28T14:06:04.276Z,11.30
2019-03-28T14:08:30.503Z,11.40
2019-03-28T14:10:56.848Z,11.30
2019-03-28T14:13:23.058Z,11.30
2019-03-28T14:15:49.316Z,11.30
2019-03-28T14:18:15.505Z,11.40
2019-03-28T14:20:41.746Z,11.40
2019-03-28T14:23:07.959Z,11.40
2019-03-28T14:25:34.174Z,11.30
2019-03-28T14:28:00.415Z,11.30
2019-03-28T14:30:26.632Z,11.40
2019-03-28T14:32:53.959Z,11.40
2019-03-28T14:35:20.582Z,11.40
2019-03-28T14:37:46.811Z,11.40
2019-03-28T14:40:13.555Z,11.40
2019-03-28T14:42:40.813Z,11.40
2019-03-28T14:45:07.420Z,11.40
2019-03-28T14:47:33.974Z,11.30
2019-03-28T14:50:00.282Z,11.40
2019-03-28T14:52:26.612Z,11.30
2019-03-28T14:54:52.806Z,11.30
2019-03-28T14:57:19.708Z,11.30
2019-03-28T14:59:46.225Z,11.30
2019-03-28T15:02:12.431Z,11.30
2019-03-28T15:04:38.670Z,11.30
2019-03-28T15:07:07.394Z,11.30
2019-03-28T15:09:34.011Z,11.20
2019-03-28T15:12:00.566Z,11.20
2019-03-28T15:14:26.791Z,11.20
2019-03-28T15:16:53.022Z,11.20
2019-03-28T15:19:19.291Z,11.20
2019-03-28T15:21:45.535Z,11.20
2019-03-28T15:24:11.750Z,11.20
2019-03-28T15:26:38.164Z,11.20
2019-03-28T15:29:04.393Z,11.30
2019-03-28T15:31:30.631Z,11.30
2019-03-28T15:33:56.839Z,11.30
2019-03-28T15:36:23.401Z,11.30
2019-03-28T15:38:49.686Z,11.40
2019-03-28T15:41:15.903Z,11.40
2019-03-28T15:43:42.143Z,11.40
2019-03-28T15:46:08.355Z,11.40
2019-03-28T15:48:35.569Z,11.40
2019-03-28T15:51:02.375Z,11.40
2019-03-28T15:53:28.603Z,11.30
2019-03-28T15:55:54.820Z,11.40
2019-03-28T15:58:23.472Z,11.40
2019-03-28T16:00:49.552Z,11.40
2019-03-28T16:03:15.782Z,11.40
2019-03-28T16:05:41.998Z,11.40
2019-03-28T16:08:08.246Z,11.40
2019-03-28T16:10:34.455Z,11.40
2019-03-28T16:13:00.670Z,11.30
2019-03-28T16:15:26.916Z,11.40
2019-03-28T16:17:53.119Z,11.40
2019-03-28T16:20:19.372Z,11.30
2019-03-28T16:22:45.574Z,11.40
2019-03-28T16:25:11.922Z,11.30
2019-03-28T16:27:38.131Z,11.40
2019-03-28T16:30:09.514Z,11.40
2019-03-28T16:32:36.047Z,11.40
2019-03-28T16:35:04.471Z,11.30
2019-03-28T16:37:30.699Z,11.30
2019-03-28T16:39:56.917Z,11.30
2019-03-28T16:42:23.156Z,11.30
2019-03-28T16:44:49.375Z,11.30
2019-03-28T16:47:15.598Z,11.30
2019-03-28T16:49:41.858Z,11.30
2019-03-28T16:52:08.434Z,11.30
2019-03-28T16:54:34.999Z,11.30
2019-03-28T16:57:01.218Z,11.30
2019-03-28T16:59:27.432Z,11.30
2019-03-28T17:01:53.668Z,11.30
2019-03-28T17:04:21.356Z,11.30
2019-03-28T17:06:48.424Z,11.30
2019-03-28T17:09:14.741Z,11.20
2019-03-28T17:11:40.983Z,11.20
2019-03-28T17:14:07.467Z,11.20
2019-03-28T17:16:33.999Z,11.20
2019-03-28T17:19:00.535Z,11.20
2019-03-28T17:21:26.780Z,11.20
2019-03-28T17:23:53.811Z,11.10
2019-03-28T17:26:20.102Z,11.10
2019-03-28T17:28:46.347Z,11.10
2019-03-28T17:31:12.554Z,11.10
2019-03-28T17:33:38.803Z,11.10
2019-03-28T17:36:05.122Z,11.10
2019-03-28T17:38:31.362Z,11.10
2019-03-28T17:40:57.940Z,11.10
2019-03-28T17:43:24.176Z,11.10
2019-03-28T17:45:50.526Z,11.10
2019-03-28T17:48:17.223Z,11.00
2019-03-28T17:50:43.782Z,11.00
2019-03-28T17:53:10.323Z,11.00
2019-03-28T17:55:36.576Z,11.00
2019-03-28T17:58:03.476Z,11.00
2019-03-28T18:00:29.714Z,11.00
2019-03-28T18:03:08.542Z,10.90
2019-03-28T18:05:24.231Z,10.90
2019-03-28T18:07:50.661Z,10.90
2019-03-28T18:10:17.175Z,10.90
2019-03-28T18:12:43.398Z,10.90
2019-03-28T18:15:10.026Z,10.90
2019-03-28T18:17:36.290Z,10.90
2019-03-28T18:20:04.759Z,10.90
2019-03-28T18:22:31.209Z,10.90
2019-03-28T18:24:57.431Z,10.90
2019-03-28T18:27:23.638Z,10.90
2019-03-28T18:29:49.870Z,10.90
2019-03-28T18:32:16.082Z,10.90
2019-03-28T18:34:42.338Z,10.80
2019-03-28T18:37:08.898Z,10.80
2019-03-28T18:39:35.114Z,10.80
2019-03-28T18:42:01.353Z,10.80
2019-03-28T18:44:27.870Z,10.80
2019-03-28T18:46:54.102Z,10.90
2019-03-28T18:49:20.631Z,10.90
2019-03-28T18:51:47.166Z,10.90
2019-03-28T18:54:13.411Z,10.90
2019-03-28T18:56:39.654Z,10.90
2019-03-28T18:59:05.950Z,10.90
2019-03-28T19:01:32.522Z,10.90
2019-03-28T19:03:59.148Z,10.90
2019-03-28T19:06:25.665Z,10.90
2019-03-28T19:08:51.921Z,10.80
2019-03-28T19:11:18.130Z,10.80
2019-03-28T19:13:44.350Z,10.80
2019-03-28T19:16:11.019Z,10.80
2019-03-28T19:18:37.357Z,10.80
2019-03-28T19:21:03.882Z,10.80
2019-03-28T19:23:30.390Z,10.80
2019-03-28T19:25:56.660Z,10.80
2019-03-28T19:28:28.778Z,10.80
2019-03-28T19:30:51.263Z,10.80
2019-03-28T19:33:17.501Z,10.80
2019-03-28T19:35:45.015Z,10.80
2019-03-28T19:38:11.258Z,10.80
2019-03-28T19:40:37.578Z,10.80
2019-03-28T19:43:04.343Z,10.70
2019-03-28T19:45:35.641Z,10.80
2019-03-28T19:48:01.741Z,10.80
2019-03-28T19:50:29.425Z,10.80
2019-03-28T19:52:55.874Z,10.80
2019-03-28T19:55:22.710Z,10.70
2019-03-28T19:57:49.266Z,10.70
2019-03-28T20:00:15.698Z,10.70
2019-03-28T20:02:41.934Z,10.70
2019-03-28T20:05:08.878Z,10.70
2019-03-28T20:07:35.418Z,10.70
2019-03-28T20:10:10.839Z,10.70
2019-03-28T20:12:31.144Z,10.70
2019-03-28T20:15:00.151Z,10.70
2019-03-28T20:17:25.923Z,10.70
2019-03-28T20:19:52.161Z,10.70
2019-03-28T20:22:18.387Z,10.70
2019-03-28T20:24:44.979Z,10.70
2019-03-28T20:27:11.194Z,10.70
2019-03-28T20:29:39.911Z,10.70
2019-03-28T20:32:08.089Z,10.70
2019-03-28T20:34:33.502Z,10.70
2019-03-28T20:37:01.146Z,10.70
2019-03-28T20:39:27.359Z,10.70
2019-03-28T20:41:53.602Z,10.70
2019-03-28T20:44:19.827Z,10.70
2019-03-28T20:46:46.072Z,10.70
2019-03-28T20:49:12.282Z,10.60
2019-03-28T20:51:38.541Z,10.70
2019-03-28T20:54:07.671Z,10.70
2019-03-28T20:56:32.776Z,10.70
2019-03-28T20:58:59.007Z,10.70
2019-03-28T21:01:25.547Z,10.60
2019-03-28T21:03:52.101Z,10.60
2019-03-28T21:06:19.583Z,10.70
2019-03-28T21:08:46.293Z,10.60
2019-03-28T21:11:12.505Z,10.60
2019-03-28T21:13:38.719Z,10.60
2019-03-28T21:16:04.946Z,10.60
2019-03-28T21:18:31.158Z,10.60
2019-03-28T21:20:57.404Z,10.60
2019-03-28T21:23:24.178Z,10.60
2019-03-28T21:25:50.730Z,10.60
2019-03-28T21:28:16.943Z,10.60
2019-03-28T21:30:47.629Z,10.50
2019-03-28T21:33:14.799Z,10.50
2019-03-28T21:35:39.982Z,10.60
2019-03-28T21:38:06.590Z,10.50
2019-03-28T21:40:33.095Z,10.50
2019-03-28T21:42:59.342Z,10.50
2019-03-28T21:45:25.708Z,10.50
2019-03-28T21:47:51.895Z,10.50
2019-03-28T21:50:18.171Z,10.50
2019-03-28T21:52:44.781Z,10.50
2019-03-28T21:55:11.592Z,10.50
2019-03-28T21:57:38.256Z,10.50
2019-03-28T22:00:08.889Z,10.40
2019-03-28T22:02:35.963Z,10.40
2019-03-28T22:05:04.234Z,10.40
2019-03-28T22:07:31.803Z,10.40
2019-03-28T22:09:57.947Z,10.40
2019-03-28T22:12:24.514Z,10.40
2019-03-28T22:14:50.743Z,10.50
2019-03-28T22:17:16.994Z,10.40
2019-03-28T22:19:43.207Z,10.40
2019-03-28T22:22:09.739Z,10.40
2019-03-28T22:24:39.025Z,10.40
2019-03-28T22:27:23.879Z,10.40
2019-03-28T22:29:50.103Z,10.40
2019-03-28T22:32:16.314Z,10.40
2019-03-28T22:34:42.551Z,10.40
2019-03-28T22:37:08.778Z,10.40
2019-03-28T22:39:35.050Z,10.40
2019-03-28T22:42:01.268Z,10.30
2019-03-28T22:44:27.512Z,10.30
2019-03-28T22:46:53.726Z,10.30
2019-03-28T22:49:19.944Z,10.30
2019-03-28T22:51:46.189Z,10.30
2019-03-28T22:54:12.473Z,10.30
2019-03-28T22:56:38.958Z,10.30
2019-03-28T22:59:05.177Z,10.30
2019-03-28T23:01:31.612Z,10.30
2019-03-28T23:03:58.150Z,10.30
2019-03-28T23:06:24.691Z,10.30
2019-03-28T23:08:50.927Z,10.30
2019-03-28T23:11:17.131Z,10.30
2019-03-28T23:13:43.371Z,10.30
2019-03-28T23:16:09.590Z,10.30
2019-03-28T23:18:35.821Z,10.30
2019-03-28T23:21:02.174Z,10.30
2019-03-28T23:23:28.385Z,10.30
2019-03-28T23:25:54.667Z,10.20
2019-03-28T23:28:20.870Z,10.20
2019-03-28T23:30:47.315Z,10.20
2019-03-28T23:33:13.539Z,10.20
2019-03-28T23:35:40.864Z,10.20
2019-03-28T23:38:07.506Z,10.20
2019-03-28T23:40:34.042Z,10.10
2019-03-28T23:43:00.288Z,10.10
2019-03-28T23:45:26.511Z,10.20
2019-03-28T23:47:52.762Z,10.20
2019-03-28T23:50:19.009Z,10.20
2019-03-28T23:52:45.238Z,10.20
2019-03-28T23:55:11.580Z,10.20
2019-03-28T23:57:37.794Z,10.20
